Mora RC

2021-03-02 06:05:00

  • imperial
Date Time Air Temperature Relative Humidity Dewpoint Windchill Heat Index Wind Speed Wind Dir. Rain Solar Radiation Soil Temperature
2m 2m 3m 3m 10cm
US/Mountain F % F F F MPH deg in MJ/m^2 F
max avg avg
2021-03-01 06:20:00 9.7 63.8 -0.1 3.4 9.7 3.3 4.0 2.6 203.0 251.9 0.00 0.0000000 33.0
2021-03-01 06:25:00 10.3 60.6 -0.6 2.9 10.3 4.0 5.6 3.5 234.0 232.5 0.00 0.0000010 33.0
2021-03-01 06:30:00 11.3 56.3 -1.2 5.3 11.3 3.3 5.1 3.2 209.9 236.3 0.00 0.0001786 33.0
2021-03-01 06:35:00 11.9 55.6 -1.0 4.5 11.9 4.2 5.3 4.1 251.8 241.4 0.00 0.0009062 33.0
2021-03-01 06:40:00 12.1 54.6 -1.2 4.0 12.1 4.7 6.5 4.9 225.2 253.8 0.00 0.0023823 33.0
2021-03-01 06:45:00 12.9 52.6 -1.2 7.4 12.9 3.1 7.2 4.7 300.8 256.1 0.00 0.0121420 33.0
2021-03-01 06:50:00 13.1 51.6 -1.4 4.1 13.1 5.6 7.2 4.8 243.4 261.6 0.00 0.0166714 33.0
2021-03-01 06:55:00 13.5 50.1 -1.7 5.2 13.5 5.1 6.7 4.7 307.1 289.0 0.00 0.0208447 32.9
2021-03-01 07:00:00 14.0 51.8 -0.5 14.0 14.0 2.4 6.5 4.0 254.9 290.9 0.00 0.0252921 32.9
2021-03-01 07:05:00 14.3 48.2 -1.8 4.2 14.3 6.9 6.9 4.8 253.0 271.7 0.00 0.0298084 32.9
2021-03-01 07:10:00 14.7 47.0 -1.9 6.4 14.7 5.3 6.3 4.9 296.4 272.0 0.00 0.0344507 32.9
2021-03-01 07:15:00 15.2 45.7 -2.0 5.0 15.2 7.2 7.2 5.4 275.5 272.9 0.00 0.0391566 32.9
2021-03-01 07:20:00 15.7 45.6 -1.6 8.2 15.7 4.7 8.3 5.9 274.8 270.2 0.00 0.0437435 32.9
2021-03-01 07:25:00 16.5 43.0 -2.1 7.4 16.5 6.3 8.3 5.3 269.6 290.5 0.00 0.0485083 32.9
2021-03-01 07:30:00 16.7 44.8 -1.1 9.6 16.7 4.6 7.4 5.6 287.4 267.8 0.00 0.0531219 32.9
2021-03-01 07:35:00 17.4 42.8 -1.4 10.7 17.4 4.4 6.7 4.7 217.0 273.8 0.00 0.0579392 32.8
2021-03-01 07:40:00 18.1 42.4 -1.0 11.0 18.1 4.7 5.6 4.0 302.9 274.5 0.00 0.0627662 32.8
2021-03-01 07:45:00 18.6 43.5 -0.0 13.0 18.6 3.7 5.8 4.2 304.5 270.8 0.00 0.0674414 32.8
2021-03-01 07:50:00 19.1 41.0 -0.7 13.4 19.1 3.8 8.7 4.3 278.5 279.7 0.00 0.0725020 32.8
2021-03-01 07:55:00 19.6 38.8 -1.5 12.6 19.6 4.9 7.4 5.3 285.4 277.5 0.00 0.0774762 32.8
2021-03-01 08:00:00 20.7 38.1 -0.9 13.6 20.7 5.1 5.6 4.1 274.6 286.1 0.00 0.0824081 32.8
2021-03-01 08:05:00 21.3 35.2 -2.0 14.8 21.3 4.7 7.6 4.9 311.5 271.5 0.00 0.0873536 32.8
2021-03-01 08:10:00 22.0 35.4 -1.2 17.2 22.0 3.5 6.9 4.3 340.5 285.0 0.00 0.0923084 32.8
2021-03-01 08:15:00 23.2 35.2 -0.4 18.6 23.2 3.5 5.5 3.3 298.8 306.5 0.00 0.0974129 32.8
2021-03-01 08:20:00 23.8 37.6 1.6 23.8 23.8 1.5 4.7 3.3 333.4 312.4 0.00 0.1018874 32.8
2021-03-01 08:25:00 24.6 36.6 1.8 24.6 24.6 1.0 4.4 2.8 327.3 339.6 0.00 0.1067736 32.8
2021-03-01 08:30:00 25.8 38.0 3.7 25.8 25.8 2.2 3.3 1.9 22.2 270.8 0.00 0.1119757 32.7
2021-03-01 08:35:00 27.1 35.5 3.4 23.3 27.1 3.3 3.3 1.8 49.5 84.1 0.00 0.1165730 32.7
2021-03-01 08:40:00 26.7 40.1 5.6 26.7 26.7 1.3 3.3 2.3 330.5 51.4 0.00 0.1215157 32.7
2021-03-01 08:45:00 26.8 38.3 4.8 26.8 26.8 2.4 3.3 2.1 81.6 64.7 0.00 0.1268211 32.7
2021-03-01 08:50:00 26.8 38.8 5.1 26.8 26.8 2.4 3.8 2.6 88.8 83.6 0.00 0.1315861 32.7
2021-03-01 08:55:00 27.4 37.2 4.6 27.4 27.4 2.6 3.7 2.8 80.7 81.2 0.00 0.1365227 32.7
2021-03-01 09:00:00 28.2 32.9 2.6 24.8 28.2 3.1 3.3 2.1 44.8 58.8 0.00 0.1412662 32.7
2021-03-01 09:05:00 28.9 32.7 3.1 28.9 28.9 2.6 3.3 2.3 176.5 84.5 0.00 0.1459771 32.7
2021-03-01 09:10:00 29.1 28.7 0.5 29.1 29.1 2.8 4.0 2.8 47.7 75.1 0.00 0.1505487 32.7
2021-03-01 09:15:00 30.1 27.3 0.4 30.1 30.1 2.1 3.5 2.5 93.4 82.0 0.00 0.1556757 32.7
2021-03-01 09:20:00 30.2 27.8 0.8 30.2 30.2 1.2 4.0 2.8 125.0 83.9 0.00 0.1595206 32.7
2021-03-01 09:25:00 31.1 26.0 0.2 31.1 31.1 3.0 4.2 3.0 136.5 97.2 0.00 0.1642970 32.7
2021-03-01 09:30:00 32.1 20.6 -3.9 32.1 32.1 1.2 4.4 2.6 90.8 91.5 0.00 0.1685494 32.7
2021-03-01 09:35:00 32.9 23.5 -0.5 28.9 32.9 4.2 4.2 2.6 90.1 121.1 0.00 0.1725229 32.7
2021-03-01 09:40:00 34.0 17.8 -5.4 29.7 34.0 4.7 6.3 4.0 151.7 135.2 0.00 0.1769311 32.7
2021-03-01 09:45:00 34.2 19.0 -3.9 30.4 34.2 4.2 6.0 3.7 138.3 150.3 0.00 0.1806483 32.7
2021-03-01 09:50:00 34.6 17.4 -5.3 34.6 34.6 2.1 4.6 2.7 262.8 121.5 0.00 0.1851856 32.7
2021-03-01 09:55:00 35.0 16.2 -6.5 30.3 35.0 5.3 6.5 4.4 113.2 153.8 0.00 0.1883744 32.7
2021-03-01 10:00:00 34.8 16.7 -6.0 31.7 34.8 3.7 5.6 4.0 207.5 162.9 0.00 0.1919871 32.7
2021-03-01 10:05:00 34.1 15.8 -7.7 34.1 34.1 2.8 7.2 4.2 239.1 189.6 0.00 0.1955088 32.7
2021-03-01 10:10:00 35.3 15.7 -6.9 30.6 35.3 5.3 5.3 1.6 172.6 214.3 0.00 0.1993185 32.7
2021-03-01 10:15:00 36.2 14.2 -8.2 32.2 36.2 4.7 5.6 4.1 74.0 132.3 0.00 0.2022758 32.7
2021-03-01 10:20:00 36.4 14.6 -7.5 31.9 36.4 5.3 7.1 3.6 145.3 100.7 0.00 0.2059275 32.7
2021-03-01 10:25:00 36.7 13.4 -9.1 36.7 36.7 2.4 6.3 3.8 196.6 136.9 0.00 0.2090503 32.7
2021-03-01 10:30:00 36.0 16.3 -5.5 31.8 36.0 4.9 6.3 4.7 176.9 157.9 0.00 0.2113323 32.7
2021-03-01 10:35:00 36.4 14.3 -7.9 33.9 36.4 3.3 11.2 5.9 73.4 110.8 0.00 0.2148044 32.7
2021-03-01 10:40:00 37.4 15.5 -5.5 32.8 37.4 5.8 7.4 5.6 136.7 138.7 0.00 0.2177300 32.7
2021-03-01 10:45:00 37.4 14.3 -7.0 35.3 37.4 3.1 8.8 4.2 306.5 140.7 0.00 0.2204250 32.7
2021-03-01 10:50:00 38.0 13.4 -7.9 38.0 38.0 2.8 8.1 4.6 94.3 129.7 0.00 0.2229899 32.7
2021-03-01 10:55:00 37.9 13.4 -8.1 33.6 37.9 5.5 7.2 4.9 176.4 132.8 0.00 0.2249807 32.7
2021-03-01 11:00:00 37.9 14.0 -7.2 35.2 37.9 3.7 8.7 5.4 159.4 150.7 0.00 0.2272229 32.7
2021-03-01 11:05:00 37.7 14.0 -7.3 32.6 37.7 6.5 8.0 5.3 101.4 182.9 0.00 0.2294578 32.7
2021-03-01 11:10:00 37.6 14.5 -6.7 32.0 37.6 7.2 8.3 5.8 127.3 138.9 0.00 0.2312542 32.7
2021-03-01 11:15:00 38.2 14.3 -6.4 34.6 38.2 4.7 10.3 6.2 116.3 124.1 0.00 0.2332465 32.7
2021-03-01 11:20:00 37.6 13.9 -7.6 33.9 37.6 4.7 7.6 4.7 138.4 149.1 0.00 0.2343811 32.7
2021-03-01 11:25:00 39.0 12.4 -8.7 35.7 39.0 4.6 9.0 5.0 96.3 142.0 0.00 0.2362947 32.7
2021-03-01 11:30:00 38.4 12.8 -8.6 35.8 38.4 3.7 6.3 3.6 218.4 199.1 0.00 0.2377246 32.7
2021-03-01 11:35:00 38.2 12.8 -8.8 38.2 38.2 3.0 7.8 4.0 248.1 178.0 0.00 0.2385301 32.7
2021-03-01 11:40:00 37.2 13.1 -9.1 37.2 37.2 2.4 6.9 3.9 146.4 198.8 0.00 0.2390421 32.7
2021-03-01 11:45:00 38.7 12.9 -8.1 34.7 38.7 5.3 7.4 4.5 184.9 177.2 0.00 0.2406116 32.7
2021-03-01 11:50:00 39.4 12.2 -8.7 35.2 39.4 5.8 8.5 5.0 140.4 159.0 0.00 0.2410752 32.7
2021-03-01 11:55:00 40.1 12.5 -7.7 35.0 40.1 7.4 10.5 6.9 155.4 122.9 0.00 0.2420326 32.7
2021-03-01 12:00:00 39.4 13.0 -7.4 34.7 39.4 6.5 7.6 4.0 149.5 120.0 0.00 0.2427624 32.7
2021-03-01 12:05:00 39.6 12.7 -7.7 33.4 39.6 9.6 9.6 3.8 134.1 146.2 0.00 0.2431828 32.7
2021-03-01 12:10:00 39.7 12.2 -8.5 35.9 39.7 5.3 11.5 6.2 130.8 125.0 0.00 0.2429867 32.7
2021-03-01 12:15:00 40.4 11.2 -9.7 36.2 40.4 6.0 8.5 5.5 128.3 115.9 0.00 0.2434453 32.7
2021-03-01 12:20:00 38.7 11.5 -10.4 34.3 38.7 5.8 7.8 5.0 57.2 84.8 0.00 0.2433992 32.7
2021-03-01 12:25:00 39.0 11.0 -11.1 39.0 39.0 2.2 8.5 4.7 164.4 86.2 0.00 0.2430182 32.7
2021-03-01 12:30:00 40.1 12.3 -8.1 36.1 40.1 5.6 9.2 4.7 141.2 109.4 0.00 0.2428446 32.7
2021-03-01 12:35:00 40.0 12.3 -8.2 34.1 40.0 8.8 9.0 6.6 77.8 114.1 0.00 0.2423384 32.9
2021-03-01 12:40:00 40.1 11.6 -9.3 37.0 40.1 4.4 8.1 4.3 181.2 125.0 0.00 0.2412531 33.1
2021-03-01 12:45:00 39.8 12.0 -8.7 35.2 39.8 6.5 9.6 6.1 101.9 97.4 0.00 0.2408026 33.4
2021-03-01 12:50:00 39.9 11.7 -9.3 39.9 39.9 2.2 7.6 5.0 151.7 97.6 0.00 0.2397927 33.8
2021-03-01 12:55:00 39.1 11.7 -9.8 37.2 39.1 3.1 6.3 3.7 76.7 68.8 0.00 0.2387716 34.1
2021-03-01 13:00:00 40.0 10.3 -11.7 35.2 40.0 6.9 6.9 3.3 80.9 118.2 0.00 0.2374890 34.4
2021-03-01 13:05:00 39.4 10.6 -11.6 35.1 39.4 5.8 8.0 5.6 24.3 75.4 0.00 0.2358650 34.7
2021-03-01 13:10:00 39.5 11.2 -10.5 36.4 39.5 4.4 7.4 5.1 162.1 116.8 0.00 0.2342929 35.0
2021-03-01 13:15:00 40.0 11.0 -10.3 40.0 40.0 2.2 7.1 4.3 145.2 149.3 0.00 0.2326043 35.3
2021-03-01 13:20:00 40.7 11.1 -9.6 40.7 40.7 3.0 6.3 3.4 68.9 145.5 0.00 0.2311068 35.6
2021-03-01 13:25:00 40.9 10.4 -10.8 38.2 40.9 4.2 6.9 4.4 74.5 101.2 0.00 0.2291510 35.9
2021-03-01 13:30:00 40.7 10.5 -10.8 37.5 40.7 4.7 8.5 5.7 88.7 83.9 0.00 0.2269883 36.2
2021-03-01 13:35:00 40.9 11.3 -9.2 38.8 40.9 3.5 6.7 4.1 74.3 84.2 0.00 0.2247667 36.5
2021-03-01 13:40:00 41.2 9.9 -11.6 38.2 41.2 4.6 6.7 4.7 64.5 64.0 0.00 0.2223971 36.7
2021-03-01 13:45:00 42.0 11.7 -7.6 39.9 42.0 3.7 5.1 3.6 94.1 69.4 0.00 0.2199250 37.0
2021-03-01 13:50:00 42.1 10.3 -10.0 40.3 42.1 3.5 7.8 5.3 60.1 79.5 0.00 0.2174177 37.2
2021-03-01 13:55:00 41.9 9.6 -11.7 41.9 41.9 1.2 9.2 4.4 52.5 72.2 0.00 0.2146796 37.5
2021-03-01 14:00:00 42.1 10.1 -10.4 40.4 42.1 3.3 8.1 4.5 64.0 77.4 0.00 0.2117866 37.7
2021-03-01 14:05:00 41.8 9.9 -11.2 40.3 41.8 3.1 6.3 3.2 113.9 63.7 0.00 0.2086012 38.0
2021-03-01 14:10:00 42.8 11.2 -7.9 41.0 42.8 3.5 6.7 4.5 112.9 124.1 0.00 0.2052518 38.3
2021-03-01 14:15:00 43.0 9.2 -11.6 41.6 43.0 3.1 9.9 4.7 150.9 103.3 0.00 0.2020597 38.5
2021-03-01 14:20:00 43.2 9.3 -11.3 39.2 43.2 6.5 7.2 3.7 118.1 93.0 0.00 0.1987887 38.7
2021-03-01 14:25:00 43.1 10.6 -8.8 41.1 43.1 3.7 8.3 5.3 92.4 120.0 0.00 0.1947871 39.0
2021-03-01 14:30:00 43.7 10.1 -9.2 39.6 43.7 6.9 11.0 6.6 122.6 111.0 0.00 0.1918148 39.2
2021-03-01 14:35:00 43.5 9.8 -10.1 40.6 43.5 4.9 8.3 5.0 149.5 110.8 0.00 0.1879139 39.4
2021-03-01 14:40:00 44.0 9.1 -11.1 39.7 44.0 7.6 10.1 7.2 125.7 125.2 0.00 0.1842120 39.6
2021-03-01 14:45:00 43.2 10.3 -9.1 39.1 43.2 6.9 9.6 6.4 92.4 91.8 0.00 0.1802708 39.8
2021-03-01 14:50:00 43.2 9.3 -11.3 38.4 43.2 8.3 9.7 6.8 83.1 109.6 0.00 0.1761762 40.0
2021-03-01 14:55:00 43.1 10.3 -9.2 40.4 43.1 4.6 8.5 5.4 47.5 86.6 0.00 0.1723282 40.2
2021-03-01 15:00:00 43.2 10.1 -9.7 38.5 43.2 8.0 8.3 5.8 79.1 91.3 0.00 0.1681206 40.4
2021-03-01 15:05:00 43.5 9.8 -10.0 40.2 43.5 5.5 8.7 6.3 70.2 99.0 0.00 0.1637308 40.5
2021-03-01 15:10:00 43.7 8.9 -11.8 42.1 43.7 3.5 8.8 6.2 115.3 121.7 0.00 0.1591399 40.7
2021-03-01 15:15:00 43.6 9.5 -10.6 40.1 43.6 5.8 7.8 5.5 60.9 104.8 0.00 0.1548725 40.8
2021-03-01 15:20:00 43.6 9.6 -10.4 39.7 43.6 6.5 7.8 5.8 96.8 89.9 0.00 0.1501046 40.9
2021-03-01 15:25:00 44.0 9.7 -9.7 40.8 44.0 5.6 8.5 5.5 68.4 112.0 0.00 0.1455271 41.1
2021-03-01 15:30:00 43.6 9.5 -10.5 41.0 43.6 4.6 7.8 6.2 91.7 102.2 0.00 0.1406959 41.2
2021-03-01 15:35:00 43.7 8.8 -12.0 41.4 43.7 4.2 7.6 5.6 80.9 99.8 0.00 0.1360182 41.3
2021-03-01 15:40:00 43.4 9.1 -11.7 41.0 43.4 4.2 8.3 5.6 173.8 114.9 0.00 0.1310426 41.4
2021-03-01 15:45:00 43.7 10.1 -9.3 41.4 43.7 4.2 9.0 5.9 131.4 107.1 0.00 0.1263304 41.4
2021-03-01 15:50:00 43.1 9.9 -10.0 39.3 43.1 6.3 8.8 5.8 133.6 104.9 0.00 0.1213335 41.5
2021-03-01 15:55:00 43.4 9.6 -10.5 41.6 43.4 3.7 8.1 5.6 62.1 99.9 0.00 0.1162914 41.6
2021-03-01 16:00:00 43.7 9.5 -10.4 40.0 43.7 6.3 8.5 5.5 125.1 105.2 0.00 0.1114095 41.6
2021-03-01 16:05:00 44.2 9.4 -10.3 42.1 44.2 4.0 7.4 4.6 109.6 126.6 0.00 0.1063217 41.7
2021-03-01 16:10:00 44.4 9.4 -10.3 41.3 44.4 5.5 5.5 3.8 195.1 167.9 0.00 0.1011655 41.8
2021-03-01 16:15:00 44.4 9.2 -10.7 41.2 44.4 5.6 7.2 4.5 137.5 129.8 0.00 0.0960684 41.8
2021-03-01 16:20:00 43.9 10.1 -9.1 39.4 43.9 8.0 8.0 5.3 113.7 126.9 0.00 0.0908914 41.8
2021-03-01 16:25:00 43.4 10.2 -9.2 40.4 43.4 5.1 7.4 5.3 186.1 132.3 0.00 0.0858214 41.9
2021-03-01 16:30:00 43.2 11.0 -7.8 41.1 43.2 3.8 6.7 5.0 118.9 125.0 0.00 0.0809868 41.9
2021-03-01 16:35:00 43.3 10.9 -8.0 41.4 43.3 3.7 6.9 5.0 147.4 115.9 0.00 0.0761539 41.9
2021-03-01 16:40:00 42.9 11.1 -7.9 38.4 42.9 7.4 7.4 4.7 109.3 118.4 0.00 0.0712307 41.9
2021-03-01 16:45:00 42.5 11.9 -6.8 40.3 42.5 3.8 7.1 5.0 130.6 130.6 0.00 0.0662254 41.9
2021-03-01 16:50:00 42.3 11.5 -7.6 42.3 42.3 1.9 5.8 3.8 144.2 145.9 0.00 0.0614044 41.9
2021-03-01 16:55:00 42.2 11.7 -7.3 42.2 42.2 2.8 4.7 2.9 99.8 146.3 0.00 0.0565627 41.9
2021-03-01 17:00:00 41.0 12.4 -7.1 38.3 41.0 4.2 7.2 4.7 169.1 178.5 0.00 0.0516705 41.9
2021-03-01 17:05:00 40.5 12.6 -7.3 36.4 40.5 5.8 6.5 4.8 204.3 183.4 0.00 0.0470937 41.8
2021-03-01 17:10:00 39.9 13.3 -6.6 37.0 39.9 4.2 7.4 4.9 133.9 178.6 0.00 0.0416202 41.8
2021-03-01 17:15:00 39.2 13.4 -7.0 36.9 39.2 3.5 6.3 4.2 129.8 177.6 0.00 0.0109354 41.7
2021-03-01 17:20:00 38.9 14.2 -6.0 35.5 38.9 4.6 6.0 4.0 219.1 179.6 0.00 0.0072515 41.7
2021-03-01 17:25:00 38.1 15.0 -5.6 35.8 38.1 3.3 4.7 3.4 177.8 183.7 0.00 0.0038944 41.6
2021-03-01 17:30:00 37.6 15.0 -6.0 34.3 37.6 4.2 6.2 4.1 214.5 186.1 0.00 0.0035300 41.5
2021-03-01 17:35:00 37.1 15.8 -5.3 34.0 37.1 4.0 5.1 3.0 204.2 185.9 0.00 0.0028999 41.4
2021-03-01 17:40:00 36.9 16.1 -5.1 34.7 36.9 3.1 5.3 3.3 194.7 183.5 0.00 0.0024485 41.3
2021-03-01 17:45:00 36.1 17.0 -4.6 36.1 36.1 1.2 4.9 2.1 138.7 149.2 0.00 0.0014739 41.2
2021-03-01 17:50:00 34.9 20.8 -1.3 34.9 34.9 0.8 2.6 1.6 34.6 68.8 0.00 0.0005882 41.1
2021-03-01 17:55:00 34.1 19.8 -3.1 34.1 34.1 0.0 0.8 0.1 67.4 145.4 0.00 0.0000108 41.0
2021-03-01 18:00:00 33.1 21.0 -2.6 33.1 33.1 0.0 0.0 0.0 0.6 0.0 0.00 0.0000000 40.8
2021-03-01 18:05:00 32.4 21.4 -2.8 32.4 32.4 0.0 0.0 0.0 214.9 0.0 0.00 0.0000000 40.7
2021-03-01 18:10:00 31.6 22.4 -2.6 31.6 31.6 0.0 0.0 0.0 317.6 0.0 0.00 0.0000000 40.6
2021-03-01 18:15:00 29.4 29.0 1.0 29.4 29.4 2.2 2.8 1.8 261.9 239.3 0.00 0.0000000 40.4
2021-03-01 18:20:00 28.3 29.3 0.3 24.2 28.3 3.7 3.7 2.9 268.4 264.8 0.00 0.0000000 40.3
2021-03-01 18:25:00 28.5 26.9 -1.4 28.5 28.5 2.4 4.7 3.8 262.5 271.2 0.00 0.0000000 40.2
2021-03-01 18:30:00 27.4 30.7 0.5 27.4 27.4 2.8 5.3 3.0 264.1 233.3 0.00 0.0000000 40.0
2021-03-01 18:35:00 26.8 30.7 -0.1 26.8 26.8 3.0 3.8 3.0 251.6 244.5 0.00 0.0000000 39.9
2021-03-01 18:40:00 26.3 31.8 0.2 26.3 26.3 3.0 4.4 2.9 232.6 235.4 0.00 0.0000000 39.8
2021-03-01 18:45:00 26.1 32.1 0.2 22.1 26.1 3.3 4.4 3.4 241.5 250.3 0.00 0.0000000 39.6
2021-03-01 18:50:00 25.7 32.4 0.1 21.7 25.7 3.3 4.6 3.5 237.5 236.5 0.00 0.0000000 39.5
2021-03-01 18:55:00 25.5 33.1 0.4 21.2 25.5 3.5 5.5 4.1 212.9 251.9 0.00 0.0000000 39.3
2021-03-01 19:00:00 24.5 35.6 1.1 20.1 24.5 3.5 4.9 3.3 219.8 232.1 0.00 0.0000000 39.2
2021-03-01 19:05:00 25.1 32.5 -0.3 25.1 25.1 2.4 5.8 3.5 163.4 249.7 0.00 0.0000000 39.1
2021-03-01 19:10:00 25.0 33.2 0.1 19.5 25.0 4.4 5.6 3.8 254.1 256.2 0.00 0.0000000 38.9
2021-03-01 19:15:00 24.7 34.8 0.8 24.7 24.7 2.6 5.3 3.3 222.0 258.9 0.00 0.0000000 38.8
2021-03-01 19:20:00 24.3 34.7 0.3 24.3 24.3 3.0 4.7 2.7 313.7 245.2 0.00 0.0000000 38.7
2021-03-01 19:25:00 24.2 34.8 0.3 19.2 24.2 3.8 5.8 3.8 222.2 261.7 0.00 0.0000000 38.5
2021-03-01 19:30:00 23.6 37.0 1.1 23.6 23.6 2.2 4.4 2.7 237.7 243.8 0.00 0.0000000 38.4
2021-03-01 19:35:00 23.6 35.4 0.2 18.4 23.6 4.0 4.4 3.1 293.4 280.7 0.00 0.0000000 38.3
2021-03-01 19:40:00 23.9 35.7 0.6 23.9 23.9 2.8 4.9 3.4 188.3 275.7 0.00 0.0000000 38.2
2021-03-01 19:45:00 23.1 37.2 0.8 19.1 23.1 3.1 3.5 2.5 224.8 252.8 0.00 0.0000000 38.1
2021-03-01 19:50:00 22.5 38.4 0.9 22.5 22.5 3.0 4.7 2.8 221.9 243.9 0.00 0.0000000 38.0
2021-03-01 19:55:00 22.3 37.8 0.4 17.5 22.3 3.5 5.1 3.7 267.8 249.4 0.00 0.0000000 37.9
2021-03-01 20:00:00 22.3 38.5 0.8 22.3 22.3 1.7 4.0 2.7 307.5 267.2 0.00 0.0000000 37.8
2021-03-01 20:05:00 22.6 38.6 1.1 22.6 22.6 1.7 3.8 2.0 221.3 273.2 0.00 0.0000000 37.7
2021-03-01 20:10:00 22.5 37.7 0.5 22.5 22.5 2.2 3.5 2.5 242.7 268.5 0.00 0.0000000 37.6
2021-03-01 20:15:00 21.9 39.3 0.8 21.9 21.9 2.4 4.6 3.3 279.5 264.9 0.00 0.0000000 37.5
2021-03-01 20:20:00 21.4 40.4 1.0 17.1 21.4 3.1 4.7 2.5 268.7 261.2 0.00 0.0000000 37.4
2021-03-01 20:25:00 20.8 41.7 1.2 13.8 20.8 5.1 5.1 2.8 276.2 251.8 0.00 0.0000000 37.3
2021-03-01 20:30:00 20.4 43.4 1.6 20.4 20.4 2.2 4.9 3.3 270.9 257.6 0.00 0.0000000 37.2
2021-03-01 20:35:00 21.5 39.4 0.5 16.9 21.5 3.3 3.8 2.9 282.8 286.9 0.00 0.0000000 37.1
2021-03-01 20:40:00 21.1 43.8 2.4 21.1 21.1 2.8 3.7 2.7 223.6 243.9 0.00 0.0000000 37.1
2021-03-01 20:45:00 20.5 43.5 1.7 15.2 20.5 3.7 4.9 3.1 259.5 257.0 0.00 0.0000000 37.0
2021-03-01 20:50:00 20.1 43.8 1.6 14.6 20.1 3.8 5.5 4.0 288.1 258.8 0.00 0.0000000 36.9
2021-03-01 20:55:00 19.7 44.1 1.3 19.7 19.7 2.8 3.8 2.7 279.6 253.6 0.00 0.0000000 36.8
2021-03-01 21:00:00 19.8 43.9 1.3 19.8 19.8 1.7 3.7 2.6 313.8 275.2 0.00 0.0000000 36.8
2021-03-01 21:05:00 21.3 39.3 0.3 17.0 21.3 3.1 4.4 2.8 268.7 292.3 0.00 0.0000000 36.7
2021-03-01 21:10:00 21.2 40.9 1.1 16.9 21.2 3.1 3.1 2.4 214.3 244.4 0.00 0.0000000 36.6
2021-03-01 21:15:00 20.5 42.2 1.2 16.1 20.5 3.1 3.7 2.8 271.4 261.8 0.00 0.0000000 36.6
2021-03-01 21:20:00 19.9 44.5 1.7 19.9 19.9 2.1 4.0 2.8 267.9 268.1 0.00 0.0000000 36.5
2021-03-01 21:25:00 18.6 47.8 2.0 13.6 18.6 3.3 3.5 2.6 220.4 236.0 0.00 0.0000000 36.4
2021-03-01 21:30:00 17.9 50.2 2.4 17.9 17.9 0.0 4.9 3.0 196.9 226.4 0.00 0.0000000 36.4
2021-03-01 21:35:00 17.3 51.3 2.3 17.3 17.3 2.8 3.5 2.2 219.2 230.4 0.00 0.0000000 36.3
2021-03-01 21:40:00 16.7 52.7 2.4 16.7 16.7 1.9 4.4 3.0 223.7 228.1 0.00 0.0000000 36.3
2021-03-01 21:45:00 17.0 51.8 2.3 8.9 17.0 5.5 5.5 2.6 255.0 252.8 0.00 0.0000000 36.2
2021-03-01 21:50:00 17.3 51.2 2.4 17.3 17.3 2.8 5.8 3.6 260.4 261.1 0.00 0.0000000 36.2
2021-03-01 21:55:00 17.2 51.2 2.2 10.0 17.2 4.7 4.9 3.2 254.1 255.2 0.00 0.0000000 36.1
2021-03-01 22:00:00 17.1 51.5 2.3 9.9 17.1 4.7 4.9 3.7 295.2 258.8 0.00 0.0000000 36.1
2021-03-01 22:05:00 17.0 51.5 2.1 17.0 17.0 2.6 4.4 3.3 270.2 264.6 0.00 0.0000000 36.0
2021-03-01 22:10:00 18.1 47.0 1.3 12.8 18.1 3.5 4.4 3.2 312.5 294.7 0.00 0.0000000 36.0
2021-03-01 22:15:00 19.4 43.2 0.7 12.2 19.4 5.1 6.2 4.4 292.5 287.2 0.00 0.0000000 35.9
2021-03-01 22:20:00 20.0 42.0 0.6 14.7 20.0 3.7 6.2 4.5 273.3 287.8 0.00 0.0000000 35.9
2021-03-01 22:25:00 18.8 47.7 2.2 13.8 18.8 3.3 4.9 3.0 221.8 234.9 0.00 0.0000000 35.8
2021-03-01 22:30:00 17.8 48.9 1.8 17.8 17.8 2.4 4.0 3.1 247.5 240.1 0.00 0.0000000 35.8
2021-03-01 22:35:00 17.4 48.7 1.3 11.6 17.4 3.7 5.1 3.8 275.4 258.8 0.00 0.0000000 35.7
2021-03-01 22:40:00 18.8 42.1 -0.5 10.0 18.8 6.5 6.5 4.5 253.9 270.8 0.00 0.0000000 35.7
2021-03-01 22:45:00 19.2 45.5 1.6 19.2 19.2 2.6 6.0 4.1 274.6 266.4 0.00 0.0000000 35.7
2021-03-01 22:50:00 17.5 49.4 1.7 17.5 17.5 2.8 3.3 2.2 281.3 268.1 0.00 0.0000000 35.6
2021-03-01 22:55:00 17.0 50.4 1.7 17.0 17.0 1.7 4.6 2.7 206.1 256.7 0.00 0.0000000 35.5
2021-03-01 23:00:00 16.2 53.3 2.2 16.2 16.2 2.8 4.0 2.6 276.3 255.6 0.00 0.0000000 35.5
2021-03-01 23:05:00 16.8 49.4 1.1 16.8 16.8 3.0 4.0 3.1 293.0 290.7 0.00 0.0000000 35.5
2021-03-01 23:10:00 16.8 51.8 2.2 11.0 16.8 3.7 4.6 3.6 223.3 241.6 0.00 0.0000000 35.4
2021-03-01 23:15:00 15.6 55.1 2.3 15.6 15.6 2.6 4.4 3.0 219.2 223.7 0.00 0.0000000 35.4
2021-03-01 23:20:00 15.2 54.4 1.7 15.2 15.2 3.0 3.5 2.5 199.6 204.9 0.00 0.0000000 35.4
2021-03-01 23:25:00 15.2 54.8 1.8 15.2 15.2 1.9 3.3 2.3 231.9 224.9 0.00 0.0000000 35.3
2021-03-01 23:30:00 15.7 53.1 1.6 15.7 15.7 0.0 2.4 1.3 277.4 246.3 0.00 0.0000000 35.3
2021-03-01 23:35:00 16.5 50.7 1.4 16.5 16.5 2.6 4.6 2.9 260.5 261.1 0.00 0.0000000 35.2
2021-03-01 23:40:00 16.2 51.8 1.5 16.2 16.2 2.1 3.7 2.3 237.6 265.6 0.00 0.0000000 35.2
2021-03-01 23:45:00 15.8 52.6 1.5 15.8 15.8 0.8 3.7 2.3 307.0 274.0 0.00 0.0000000 35.2
2021-03-01 23:50:00 15.7 52.8 1.5 15.7 15.7 2.6 3.3 1.7 255.1 281.9 0.00 0.0000000 35.1
2021-03-01 23:55:00 15.2 53.6 1.3 15.2 15.2 2.1 3.3 2.5 226.8 251.5 0.00 0.0000000 35.1
2021-03-02 00:00:00 14.9 54.4 1.4 14.9 14.9 2.6 4.7 3.0 232.3 223.8 0.00 0.0000000 35.1
2021-03-02 00:05:00 15.4 54.9 2.0 15.4 15.4 1.7 3.8 2.8 201.7 224.1 0.00 0.0000000 35.0
2021-03-02 00:10:00 15.2 54.8 1.8 15.2 15.2 1.2 5.3 2.3 314.3 264.1 0.00 0.0000000 35.0
2021-03-02 00:15:00 15.7 53.3 1.7 15.7 15.7 2.2 2.8 1.6 252.6 272.7 0.00 0.0000000 35.0
2021-03-02 00:20:00 15.6 55.5 2.5 15.6 15.6 1.0 2.8 1.5 225.0 286.8 0.00 0.0000000 34.9
2021-03-02 00:25:00 15.2 54.9 1.8 15.2 15.2 1.5 3.7 1.6 258.1 220.9 0.00 0.0000000 34.9
2021-03-02 00:30:00 14.8 54.9 1.5 14.8 14.8 1.2 3.5 1.6 242.2 262.1 0.00 0.0000000 34.9
2021-03-02 00:35:00 15.2 53.1 1.1 7.6 15.2 4.7 6.0 3.5 290.0 303.6 0.00 0.0000000 34.8
2021-03-02 00:40:00 15.7 53.1 1.6 15.7 15.7 0.0 4.9 2.7 311.3 289.7 0.00 0.0000000 34.8
2021-03-02 00:45:00 15.9 53.6 2.0 15.9 15.9 0.0 2.6 1.0 195.2 356.6 0.00 0.0000000 34.8
2021-03-02 00:50:00 16.1 50.9 1.1 7.1 16.1 6.2 6.2 3.6 235.2 236.9 0.00 0.0000000 34.7
2021-03-02 00:55:00 17.3 48.9 1.3 17.3 17.3 2.6 7.4 4.7 269.9 284.4 0.00 0.0000000 34.7
2021-03-02 01:00:00 18.2 45.9 0.8 11.1 18.2 4.7 4.7 3.6 319.4 283.0 0.00 0.0000000 34.7
2021-03-02 01:05:00 18.8 45.4 1.1 18.8 18.8 3.0 5.3 3.6 286.1 322.1 0.00 0.0000000 34.7
2021-03-02 01:10:00 19.1 44.1 0.8 11.8 19.1 5.1 6.2 4.4 242.3 263.6 0.00 0.0000000 34.6
2021-03-02 01:15:00 19.2 44.5 1.0 12.1 19.2 4.9 7.8 5.4 251.5 263.5 0.00 0.0000000 34.6
2021-03-02 01:20:00 19.1 43.1 0.3 11.2 19.1 5.6 5.6 4.0 307.6 256.9 0.00 0.0000000 34.6
2021-03-02 01:25:00 21.5 38.2 -0.2 12.7 21.5 7.1 7.1 4.5 268.7 288.0 0.00 0.0000000 34.6
2021-03-02 01:30:00 22.3 38.3 0.7 16.4 22.3 4.4 7.6 4.8 305.7 290.7 0.00 0.0000000 34.5
2021-03-02 01:35:00 21.8 38.7 0.5 16.8 21.8 3.7 6.2 4.4 25.1 301.6 0.00 0.0000000 34.5
2021-03-02 01:40:00 18.8 44.3 0.6 18.8 18.8 1.3 4.7 2.5 224.1 41.3 0.00 0.0000000 34.5
2021-03-02 01:45:00 18.1 45.2 0.4 18.1 18.1 3.0 3.0 2.0 293.5 100.7 0.00 0.0000000 34.4
2021-03-02 01:50:00 21.3 38.6 -0.1 14.0 21.3 5.5 5.5 3.8 255.2 287.3 0.00 0.0000000 34.4
2021-03-02 01:55:00 22.9 36.3 0.1 18.3 22.9 3.5 6.9 5.1 36.2 272.0 0.00 0.0000000 34.4
2021-03-02 02:00:00 20.9 40.4 0.5 20.9 20.9 2.4 4.2 2.1 253.3 63.3 0.00 0.0000000 34.3
2021-03-02 02:05:00 21.2 39.5 0.4 21.2 21.2 3.0 5.5 3.6 26.3 319.1 0.00 0.0000000 34.3
2021-03-02 02:10:00 20.0 41.4 0.3 20.0 20.0 2.2 3.0 1.3 279.1 344.7 0.00 0.0000000 34.3
2021-03-02 02:15:00 20.3 40.7 0.2 20.3 20.3 1.7 2.6 1.5 309.1 329.8 0.00 0.0000000 34.3
2021-03-02 02:20:00 21.5 37.4 -0.5 14.6 21.5 5.1 6.0 2.8 265.6 301.1 0.00 0.0000000 34.3
2021-03-02 02:25:00 23.4 35.4 -0.1 17.8 23.4 4.2 7.2 4.4 261.7 276.7 0.00 0.0000000 34.2
2021-03-02 02:30:00 24.0 35.0 0.3 19.1 24.0 3.8 8.0 5.1 257.5 267.5 0.00 0.0000000 34.2
2021-03-02 02:35:00 24.8 33.1 -0.2 16.7 24.8 7.1 8.5 6.1 302.1 269.9 0.00 0.0000000 34.2
2021-03-02 02:40:00 24.8 33.2 -0.1 18.4 24.8 5.3 8.5 5.8 299.2 275.4 0.00 0.0000000 34.2
2021-03-02 02:45:00 24.3 36.8 1.6 19.1 24.3 4.0 8.5 5.1 251.8 266.2 0.00 0.0000000 34.1
2021-03-02 02:50:00 23.0 37.7 1.0 17.5 23.0 4.2 7.8 5.2 259.8 251.5 0.00 0.0000000 34.1
2021-03-02 02:55:00 22.6 36.9 0.2 15.2 22.6 5.8 8.7 5.8 232.6 253.7 0.00 0.0000000 34.1
2021-03-02 03:00:00 22.9 36.6 0.2 15.8 22.9 5.5 8.3 5.5 273.0 255.6 0.00 0.0000000 34.1
2021-03-02 03:05:00 21.8 38.7 0.4 15.8 21.8 4.4 6.7 5.1 245.4 251.0 0.00 0.0000000 34.1
2021-03-02 03:10:00 21.9 37.8 0.1 15.1 21.9 5.1 6.2 4.6 240.8 258.1 0.00 0.0000000 34.0
2021-03-02 03:15:00 22.7 36.6 0.1 22.7 22.7 1.3 6.9 3.7 281.4 311.2 0.00 0.0000000 34.0
2021-03-02 03:20:00 22.9 36.7 0.3 17.2 22.9 4.2 9.4 4.3 267.2 251.5 0.00 0.0000000 34.0
2021-03-02 03:25:00 23.2 36.1 0.2 16.5 23.2 5.3 7.1 5.2 277.7 265.4 0.00 0.0000000 34.0
2021-03-02 03:30:00 23.4 36.5 0.7 15.4 23.4 6.7 7.4 5.0 265.5 265.6 0.00 0.0000000 33.9
2021-03-02 03:35:00 23.8 35.8 0.6 17.9 23.8 4.6 9.9 6.4 273.3 259.1 0.00 0.0000000 33.9
2021-03-02 03:40:00 24.1 35.1 0.4 18.9 24.1 4.0 8.7 5.5 282.2 270.7 0.00 0.0000000 33.9
2021-03-02 03:45:00 24.6 34.2 0.4 15.0 24.6 9.4 9.4 6.3 284.2 278.5 0.00 0.0000000 33.9
2021-03-02 03:50:00 25.0 33.0 -0.1 16.7 25.0 7.4 9.6 6.1 268.4 276.9 0.00 0.0000000 33.9
2021-03-02 03:55:00 25.3 33.3 0.3 17.9 25.3 6.3 10.6 6.7 281.5 263.1 0.00 0.0000000 33.9
2021-03-02 04:00:00 25.0 33.6 0.3 19.1 25.0 4.7 7.1 5.7 281.0 270.7 0.00 0.0000000 33.8
2021-03-02 04:05:00 25.3 32.5 -0.2 19.5 25.3 4.7 8.8 5.4 279.1 273.5 0.00 0.0000000 33.8
2021-03-02 04:10:00 25.1 32.7 -0.2 18.6 25.1 5.3 7.2 5.1 235.4 264.7 0.00 0.0000000 33.8
2021-03-02 04:15:00 24.6 35.5 1.1 19.1 24.6 4.4 6.5 5.0 232.9 254.4 0.00 0.0000000 33.8
2021-03-02 04:20:00 24.4 37.1 1.9 19.9 24.4 3.5 7.1 4.9 278.4 262.7 0.00 0.0000000 33.8
2021-03-02 04:25:00 25.3 32.8 0.0 18.0 25.3 6.2 8.1 5.7 296.4 263.9 0.00 0.0000000 33.8
2021-03-02 04:30:00 25.4 32.6 -0.0 18.8 25.4 5.5 9.0 6.0 253.1 258.2 0.00 0.0000000 33.7
2021-03-02 04:35:00 25.4 32.2 -0.3 18.2 25.4 6.2 7.8 6.0 278.5 264.6 0.00 0.0000000 33.7
2021-03-02 04:40:00 25.3 32.8 0.1 19.1 25.3 5.1 7.8 6.1 264.9 262.9 0.00 0.0000000 33.7
2021-03-02 04:45:00 25.0 34.3 0.8 18.4 25.0 5.5 8.3 5.6 240.9 267.1 0.00 0.0000000 33.7
2021-03-02 04:50:00 24.4 35.6 1.0 16.4 24.4 6.9 8.0 5.6 238.4 257.7 0.00 0.0000000 33.7
2021-03-02 04:55:00 24.8 33.4 -0.0 18.4 24.8 5.1 8.7 6.1 285.0 248.7 0.00 0.0000000 33.7
2021-03-02 05:00:00 24.6 32.8 -0.6 18.8 24.6 4.6 7.4 5.6 267.2 247.1 0.00 0.0000000 33.7
2021-03-02 05:05:00 24.6 33.7 0.0 19.5 24.6 4.0 7.8 5.0 223.5 247.5 0.00 0.0000000 33.6
2021-03-02 05:10:00 24.7 33.2 -0.2 16.9 24.7 6.7 8.1 6.0 266.2 249.0 0.00 0.0000000 33.6
2021-03-02 05:15:00 25.0 32.2 -0.6 17.7 25.0 6.2 8.8 5.8 292.4 255.8 0.00 0.0000000 33.6
2021-03-02 05:20:00 24.9 32.6 -0.4 15.0 24.9 9.9 9.9 5.9 237.2 254.5 0.00 0.0000000 33.6
2021-03-02 05:25:00 25.3 32.1 -0.4 17.6 25.3 6.7 10.1 6.7 233.7 254.8 0.00 0.0000000 33.6
2021-03-02 05:30:00 25.0 31.8 -0.9 17.0 25.0 7.1 7.8 5.9 277.3 252.9 0.00 0.0000000 33.5
2021-03-02 05:35:00 25.1 31.2 -1.3 16.8 25.1 7.4 7.4 5.5 268.9 265.2 0.00 0.0000000 33.5
2021-03-02 05:40:00 24.9 31.7 -1.0 18.8 24.9 4.9 8.8 5.2 282.1 266.0 0.00 0.0000000 33.5
2021-03-02 05:45:00 24.9 32.0 -0.8 19.8 24.9 4.0 8.7 5.6 234.6 246.9 0.00 0.0000000 33.5
2021-03-02 05:50:00 25.0 30.8 -1.6 18.9 25.0 4.9 7.8 5.6 276.2 248.7 0.00 0.0000000 33.5
2021-03-02 05:55:00 24.8 31.4 -1.3 18.1 24.8 5.5 6.5 4.4 308.0 274.6 0.00 0.0000000 33.5
2021-03-02 06:00:00 24.6 31.8 -1.2 18.4 24.6 4.9 7.4 5.2 277.4 278.8 0.00 0.0000000 33.5
2021-03-02 06:05:00 24.7 31.6 -1.3 17.0 24.7 6.5 8.8 6.2 281.4 267.2 0.00 0.0000000 33.4

Data is courtesy of the NM Climate Center. DO NOT USE IN LEGAL PROCEEDINGS.